createdAt,value
2023-01-28T00:00:52.287Z,9.68
2023-01-28T00:03:19.308Z,9.96
2023-01-28T00:05:45.999Z,10.17
2023-01-28T00:08:13.520Z,9.85
2023-01-28T00:10:41.810Z,9.67
2023-01-28T00:13:08.517Z,9.36
2023-01-28T00:15:35.262Z,9.61
2023-01-28T00:18:02.004Z,9.74
2023-01-28T00:20:28.535Z,9.86
2023-01-28T00:22:55.159Z,9.85
2023-01-28T00:25:21.707Z,9.94
2023-01-28T00:27:50.000Z,9.59
2023-01-28T00:30:17.563Z,9.65
2023-01-28T00:32:44.677Z,9.64
2023-01-28T00:35:13.414Z,9.82
2023-01-28T00:37:41.419Z,9.65
2023-01-28T00:40:09.926Z,9.72
2023-01-28T00:42:37.497Z,9.65
2023-01-28T00:45:04.709Z,9.58
2023-01-28T00:47:31.316Z,9.86
2023-01-28T00:49:57.987Z,9.88
2023-01-28T00:52:24.664Z,9.88
2023-01-28T00:54:51.222Z,10.06
2023-01-28T00:57:19.447Z,9.90
2023-01-28T00:59:46.490Z,10.14
2023-01-28T01:02:13.171Z,10.26
2023-01-28T01:04:40.665Z,10.38
2023-01-28T01:07:07.419Z,10.42
2023-01-28T01:09:34.129Z,10.29
2023-01-28T01:12:01.071Z,10.03
2023-01-28T01:14:28.465Z,9.94
2023-01-28T01:16:55.144Z,9.86
2023-01-28T01:19:21.841Z,10.04
2023-01-28T01:21:50.333Z,10.19
2023-01-28T01:24:17.137Z,10.05
2023-01-28T01:26:43.771Z,10.43
2023-01-28T01:29:10.299Z,10.81
2023-01-28T01:31:36.884Z,10.36
2023-01-28T01:34:03.552Z,10.45
2023-01-28T01:36:31.106Z,10.65
2023-01-28T01:38:57.941Z,10.97
2023-01-28T01:41:28.914Z,11.10
2023-01-28T01:44:01.197Z,11.20
2023-01-28T01:46:43.696Z,11.24
2023-01-28T01:49:16.323Z,11.27
2023-01-28T01:51:45.619Z,11.48
2023-01-28T01:54:13.307Z,11.74
2023-01-28T01:56:42.939Z,11.56
2023-01-28T01:59:12.846Z,11.34
2023-01-28T02:01:39.780Z,11.37
2023-01-28T02:04:12.687Z,11.46
2023-01-28T02:06:40.032Z,11.55
2023-01-28T02:09:22.489Z,11.64
2023-01-28T02:11:50.729Z,11.57
2023-01-28T02:14:30.656Z,11.43
2023-01-28T02:16:58.897Z,10.75
2023-01-28T02:19:32.212Z,10.65
2023-01-28T02:22:40.173Z,10.69
2023-01-28T02:25:22.032Z,10.89
2023-01-28T02:28:22.407Z,10.90
2023-01-28T02:31:01.087Z,10.81
2023-01-28T02:33:39.049Z,11.04
2023-01-28T02:36:35.068Z,10.50
2023-01-28T02:39:13.371Z,10.62
2023-01-28T02:41:57.631Z,10.34
2023-01-28T02:44:24.291Z,10.34
2023-01-28T02:47:11.747Z,10.17
2023-01-28T02:49:51.924Z,10.05
2023-01-28T02:52:46.643Z,10.07
2023-01-28T02:55:21.471Z,10.41
2023-01-28T02:57:51.201Z,10.30
2023-01-28T03:00:39.725Z,10.27
2023-01-28T03:03:33.205Z,10.14
2023-01-28T03:06:04.115Z,10.18
2023-01-28T03:08:58.048Z,10.28
2023-01-28T03:11:45.729Z,10.25
2023-01-28T03:14:31.126Z,10.57
2023-01-28T03:17:19.470Z,10.91
2023-01-28T03:20:05.380Z,10.29
2023-01-28T03:22:55.162Z,10.25
2023-01-28T03:25:44.075Z,10.15
2023-01-28T03:28:34.864Z,9.93
2023-01-28T03:31:28.234Z,9.88
2023-01-28T03:34:18.078Z,9.86
2023-01-28T03:36:55.723Z,9.72
2023-01-28T03:39:37.982Z,9.64
2023-01-28T03:42:11.848Z,9.47
2023-01-28T03:44:54.728Z,9.75
2023-01-28T03:47:30.216Z,10.09
2023-01-28T03:49:59.599Z,9.81
2023-01-28T03:52:31.959Z,9.87
2023-01-28T03:55:17.480Z,10.19
2023-01-28T03:57:45.349Z,10.33
2023-01-28T04:00:13.786Z,10.39
2023-01-28T04:02:43.194Z,10.65
2023-01-28T04:05:15.968Z,10.44
2023-01-28T04:07:46.898Z,9.98
2023-01-28T04:10:27.462Z,10.32
2023-01-28T04:13:19.036Z,10.50
2023-01-28T04:15:46.485Z,10.16
2023-01-28T04:18:15.030Z,10.54
2023-01-28T04:20:42.053Z,10.43
2023-01-28T04:23:08.843Z,10.54
2023-01-28T04:25:35.366Z,10.49
2023-01-28T04:28:05.565Z,9.98
2023-01-28T04:30:32.193Z,9.59
2023-01-28T04:33:05.732Z,9.66
2023-01-28T04:35:47.141Z,9.78
2023-01-28T04:38:22.491Z,9.97
2023-01-28T04:41:20.595Z,10.21
2023-01-28T04:43:49.158Z,10.16
2023-01-28T04:46:34.389Z,9.86
2023-01-28T04:49:04.111Z,9.65
2023-01-28T04:51:50.973Z,9.71
2023-01-28T04:54:31.926Z,10.20
2023-01-28T04:57:01.503Z,9.91
2023-01-28T04:59:29.227Z,10.04
2023-01-28T05:01:56.126Z,10.27
2023-01-28T05:04:22.808Z,10.06
2023-01-28T05:06:49.522Z,10.04
2023-01-28T05:09:19.678Z,9.75
2023-01-28T05:11:46.510Z,9.74
2023-01-28T05:14:14.369Z,9.66
2023-01-28T05:16:47.165Z,9.54
2023-01-28T05:19:14.580Z,9.58
2023-01-28T05:21:43.130Z,9.28
2023-01-28T05:24:18.606Z,9.51
2023-01-28T05:26:45.281Z,9.25
2023-01-28T05:29:12.119Z,9.35
2023-01-28T05:31:39.459Z,9.63
2023-01-28T05:34:06.045Z,9.26
2023-01-28T05:36:32.592Z,9.00
2023-01-28T05:39:03.949Z,9.13
2023-01-28T05:41:30.524Z,9.27
2023-01-28T05:44:01.007Z,9.25
2023-01-28T05:46:35.659Z,9.12
2023-01-28T05:49:12.287Z,9.33
2023-01-28T05:52:07.978Z,9.42
2023-01-28T05:54:34.710Z,9.91
2023-01-28T05:57:01.358Z,9.96
2023-01-28T05:59:29.127Z,9.95
2023-01-28T06:01:57.773Z,10.20
2023-01-28T06:04:24.463Z,10.22
2023-01-28T06:06:51.981Z,10.13
2023-01-28T06:09:18.681Z,10.50
2023-01-28T06:11:46.197Z,10.77
2023-01-28T06:14:13.852Z,9.93
2023-01-28T06:16:59.102Z,9.76
2023-01-28T06:19:32.443Z,9.60
2023-01-28T06:21:58.964Z,9.51
2023-01-28T06:24:25.867Z,9.35
2023-01-28T06:26:52.500Z,9.61
2023-01-28T06:29:19.056Z,9.89
2023-01-28T06:31:45.638Z,9.97
2023-01-28T06:34:13.136Z,10.25
2023-01-28T06:36:39.652Z,10.29
2023-01-28T06:39:06.240Z,10.30
2023-01-28T06:41:32.873Z,10.38
2023-01-28T06:43:59.435Z,9.55
2023-01-28T06:46:25.983Z,9.45
2023-01-28T06:48:52.672Z,9.78
2023-01-28T06:51:19.412Z,9.67
2023-01-28T06:53:46.243Z,10.02
2023-01-28T06:56:12.846Z,10.12
2023-01-28T06:58:39.451Z,9.93
2023-01-28T07:01:06.834Z,9.87
2023-01-28T07:03:33.362Z,9.99
2023-01-28T07:05:59.871Z,9.84
2023-01-28T07:08:26.431Z,9.57
2023-01-28T07:10:52.952Z,9.60
2023-01-28T07:13:19.563Z,9.25
2023-01-28T07:15:46.108Z,9.21
2023-01-28T07:18:12.660Z,9.53
2023-01-28T07:20:39.212Z,9.34
2023-01-28T07:23:05.824Z,9.12
2023-01-28T07:25:32.493Z,9.14
2023-01-28T07:27:59.126Z,9.14
2023-01-28T07:30:25.918Z,9.07
2023-01-28T07:32:57.128Z,9.18
2023-01-28T07:35:24.939Z,9.18
2023-01-28T07:37:56.428Z,9.28
2023-01-28T07:40:24.375Z,9.62
2023-01-28T07:42:51.162Z,9.62
2023-01-28T07:45:22.568Z,9.42
2023-01-28T07:48:09.905Z,9.46
2023-01-28T07:50:37.993Z,9.35
2023-01-28T07:53:10.600Z,9.33
2023-01-28T07:55:38.452Z,9.41
2023-01-28T07:58:07.472Z,9.35
2023-01-28T08:00:36.247Z,9.34
2023-01-28T08:03:12.340Z,9.46
2023-01-28T08:05:44.298Z,9.57
2023-01-28T08:08:11.919Z,9.39
2023-01-28T08:10:39.637Z,9.59
2023-01-28T08:13:06.759Z,9.18
2023-01-28T08:15:35.163Z,9.06
2023-01-28T08:18:03.367Z,9.16
2023-01-28T08:20:30.604Z,9.18
2023-01-28T08:23:18.695Z,9.20
2023-01-28T08:25:46.686Z,8.93
2023-01-28T08:28:15.377Z,8.92
2023-01-28T08:30:42.010Z,9.14
2023-01-28T08:33:10.767Z,9.02
2023-01-28T08:35:37.498Z,9.34
2023-01-28T08:38:04.859Z,9.14
2023-01-28T08:40:32.662Z,9.03
2023-01-28T08:42:59.195Z,8.97
2023-01-28T08:45:28.034Z,9.24
2023-01-28T08:47:56.054Z,9.40
2023-01-28T08:50:24.297Z,8.95
2023-01-28T08:52:56.847Z,9.28
2023-01-28T08:55:24.196Z,9.39
2023-01-28T08:57:50.883Z,9.33
2023-01-28T09:00:18.285Z,8.93
2023-01-28T09:02:45.508Z,9.10
2023-01-28T09:05:12.156Z,9.23
2023-01-28T09:07:39.152Z,9.33
2023-01-28T09:10:06.593Z,9.28
2023-01-28T09:12:33.542Z,9.81
2023-01-28T09:15:00.185Z,9.58
2023-01-28T09:17:26.714Z,9.50
2023-01-28T09:19:53.241Z,9.41
2023-01-28T09:22:19.795Z,9.54
2023-01-28T09:24:46.485Z,9.65
2023-01-28T09:27:13.106Z,9.87
2023-01-28T09:29:39.744Z,9.56
2023-01-28T09:32:10.003Z,9.68
2023-01-28T09:34:37.560Z,9.49
2023-01-28T09:37:04.051Z,9.67
2023-01-28T09:39:31.048Z,9.71
2023-01-28T09:42:16.451Z,9.79
2023-01-28T09:45:21.468Z,9.70
2023-01-28T09:47:52.357Z,9.73
2023-01-28T09:50:32.167Z,9.67
2023-01-28T09:53:33.253Z,9.69
2023-01-28T09:56:09.675Z,9.44
2023-01-28T09:58:36.255Z,9.62
2023-01-28T10:02:00.697Z,9.93
2023-01-28T10:04:53.517Z,9.55
2023-01-28T10:07:49.287Z,9.89
2023-01-28T10:10:43.351Z,10.07
2023-01-28T10:13:44.276Z,10.03
2023-01-28T10:16:22.979Z,10.34
2023-01-28T10:18:58.334Z,10.33
2023-01-28T10:21:32.884Z,10.38
2023-01-28T10:24:03.398Z,10.45
2023-01-28T10:26:40.226Z,10.32
2023-01-28T10:29:18.063Z,10.12
2023-01-28T10:32:13.024Z,10.19
2023-01-28T10:34:39.564Z,10.06
2023-01-28T10:37:06.072Z,10.07
2023-01-28T10:39:33.920Z,10.07
2023-01-28T10:42:00.512Z,9.93
2023-01-28T10:44:42.269Z,9.89
2023-01-28T10:47:19.986Z,9.55
2023-01-28T10:49:53.191Z,9.61
2023-01-28T10:52:19.809Z,9.69
2023-01-28T10:54:46.465Z,9.75
2023-01-28T10:57:18.309Z,9.90
2023-01-28T10:59:45.639Z,10.11
2023-01-28T11:02:26.756Z,9.55
2023-01-28T11:05:22.389Z,9.66
2023-01-28T11:07:50.043Z,10.05
2023-01-28T11:10:43.787Z,9.92
2023-01-28T11:13:17.706Z,10.14
2023-01-28T11:15:52.836Z,10.01
2023-01-28T11:18:30.196Z,10.12
2023-01-28T11:21:03.451Z,10.28
2023-01-28T11:23:50.738Z,10.40
2023-01-28T11:26:24.103Z,10.77
2023-01-28T11:28:52.497Z,10.63
2023-01-28T11:31:21.726Z,10.49
2023-01-28T11:33:57.193Z,10.58
2023-01-28T11:36:26.305Z,10.58
2023-01-28T11:38:54.511Z,10.60
2023-01-28T11:41:32.994Z,10.66
2023-01-28T11:44:11.324Z,10.52
2023-01-28T11:46:40.832Z,9.96
2023-01-28T11:49:10.411Z,10.22
2023-01-28T11:51:48.076Z,10.27
2023-01-28T11:54:47.693Z,10.49
2023-01-28T11:57:34.180Z,10.54
2023-01-28T12:00:24.406Z,10.67
2023-01-28T12:02:55.875Z,10.55
2023-01-28T12:05:34.889Z,10.87
2023-01-28T12:08:16.513Z,11.11
2023-01-28T12:11:47.965Z,11.14
2023-01-28T12:14:36.377Z,10.77
2023-01-28T12:17:02.882Z,10.94
2023-01-28T12:19:32.453Z,10.71
2023-01-28T12:22:23.228Z,10.80
2023-01-28T12:24:58.878Z,10.97
2023-01-28T12:27:50.549Z,10.83
2023-01-28T12:30:29.317Z,10.86
2023-01-28T12:33:17.716Z,11.17
2023-01-28T12:36:02.527Z,11.18
2023-01-28T12:38:50.706Z,10.72
2023-01-28T12:41:21.270Z,10.62
2023-01-28T12:44:00.424Z,10.41
2023-01-28T12:46:42.245Z,10.67
2023-01-28T12:49:25.560Z,10.74
2023-01-28T12:52:01.223Z,10.82
2023-01-28T12:54:49.521Z,10.78
2023-01-28T12:57:24.642Z,10.73
2023-01-28T13:00:17.137Z,10.72
2023-01-28T13:02:52.143Z,10.17
2023-01-28T13:05:22.771Z,10.65
2023-01-28T13:08:01.096Z,10.69
2023-01-28T13:10:42.892Z,10.67
2023-01-28T13:13:20.136Z,10.59
2023-01-28T13:15:47.213Z,10.78
2023-01-28T13:18:33.215Z,10.81
2023-01-28T13:21:02.149Z,10.46
2023-01-28T13:23:32.116Z,10.31
2023-01-28T13:26:11.182Z,10.47
2023-01-28T13:28:37.928Z,10.66
2023-01-28T13:31:21.947Z,10.97
2023-01-28T13:34:00.591Z,10.75
2023-01-28T13:36:34.365Z,10.66
2023-01-28T13:39:06.891Z,10.74
2023-01-28T13:41:42.356Z,10.62
2023-01-28T13:44:30.328Z,10.72
2023-01-28T13:47:05.317Z,10.97
2023-01-28T13:49:42.346Z,11.15
2023-01-28T13:52:12.019Z,11.12
2023-01-28T13:54:43.991Z,11.25
2023-01-28T13:57:16.687Z,11.53
2023-01-28T14:00:11.386Z,11.61
2023-01-28T14:03:16.151Z,11.68
2023-01-28T14:06:11.198Z,11.74
2023-01-28T14:09:15.861Z,12.00
2023-01-28T14:11:54.594Z,11.97
2023-01-28T14:14:33.842Z,12.27
2023-01-28T14:17:17.357Z,11.88
2023-01-28T14:19:46.096Z,12.03
2023-01-28T14:22:21.175Z,12.53
2023-01-28T14:24:48.433Z,12.57
2023-01-28T14:27:38.854Z,12.65
2023-01-28T14:30:15.973Z,12.64
2023-01-28T14:32:52.211Z,12.49
2023-01-28T14:35:27.122Z,12.39
2023-01-28T14:37:54.852Z,12.56
2023-01-28T14:40:21.847Z,12.55
2023-01-28T14:42:53.038Z,12.70
2023-01-28T14:45:51.316Z,12.48
2023-01-28T14:48:38.325Z,12.43
2023-01-28T14:51:34.082Z,12.34
2023-01-28T14:54:37.976Z,12.59
2023-01-28T14:57:22.908Z,12.85
2023-01-28T14:59:55.318Z,13.19
2023-01-28T15:02:25.235Z,13.19
2023-01-28T15:04:53.382Z,12.99
2023-01-28T15:07:22.223Z,13.09
2023-01-28T15:10:00.698Z,12.98
2023-01-28T15:12:29.213Z,12.74
2023-01-28T15:14:55.958Z,12.95
2023-01-28T15:17:28.009Z,11.61
2023-01-28T15:19:57.525Z,11.34
2023-01-28T15:22:27.686Z,11.38
2023-01-28T15:24:55.878Z,11.35
2023-01-28T15:27:31.113Z,11.24
2023-01-28T15:29:59.804Z,11.22
2023-01-28T15:32:29.570Z,11.18
2023-01-28T15:34:56.556Z,11.25
2023-01-28T15:37:23.154Z,11.25
2023-01-28T15:40:00.699Z,10.98
2023-01-28T15:42:29.335Z,10.94
2023-01-28T15:44:59.493Z,10.94
2023-01-28T15:47:33.536Z,11.11
2023-01-28T15:50:04.531Z,10.82
2023-01-28T15:52:40.831Z,10.85
2023-01-28T15:55:30.632Z,10.84
2023-01-28T15:57:57.269Z,10.69
2023-01-28T16:00:25.424Z,10.67
2023-01-28T16:02:55.041Z,10.69
2023-01-28T16:05:26.114Z,10.52
2023-01-28T16:07:53.359Z,10.35
2023-01-28T16:10:27.065Z,10.66
2023-01-28T16:13:02.140Z,10.86
2023-01-28T16:15:28.862Z,10.67
2023-01-28T16:17:55.695Z,10.68
2023-01-28T16:20:27.623Z,10.71
2023-01-28T16:22:57.842Z,10.45
2023-01-28T16:25:33.865Z,10.37
2023-01-28T16:28:03.122Z,10.46
2023-01-28T16:30:30.171Z,10.37
2023-01-28T16:32:56.943Z,10.39
2023-01-28T16:35:56.427Z,10.61
2023-01-28T16:38:19.245Z,10.47
2023-01-28T16:40:47.100Z,10.49
2023-01-28T16:43:15.528Z,10.74
2023-01-28T16:45:43.035Z,10.65
2023-01-28T16:48:09.695Z,10.34
2023-01-28T16:50:40.008Z,10.28
2023-01-28T16:53:17.324Z,10.17
2023-01-28T16:55:44.037Z,9.98
2023-01-28T16:58:10.865Z,10.12
2023-01-28T17:00:37.568Z,10.29
2023-01-28T17:03:05.569Z,10.20
2023-01-28T17:05:32.136Z,9.94
2023-01-28T17:07:59.232Z,10.15
2023-01-28T17:10:26.048Z,10.27
2023-01-28T17:12:52.586Z,10.39
2023-01-28T17:15:19.602Z,10.32
2023-01-28T17:17:50.598Z,10.25
2023-01-28T17:20:17.439Z,9.80
2023-01-28T17:22:44.325Z,9.86
2023-01-28T17:25:11.561Z,9.73
2023-01-28T17:27:38.241Z,9.91
2023-01-28T17:30:05.726Z,9.95
2023-01-28T17:32:32.875Z,10.06
2023-01-28T17:34:59.498Z,9.79
2023-01-28T17:37:26.005Z,9.66
2023-01-28T17:39:52.664Z,9.71
2023-01-28T17:42:19.173Z,9.85
2023-01-28T17:44:45.727Z,9.39
2023-01-28T17:47:12.291Z,8.92
2023-01-28T17:49:38.886Z,8.67
2023-01-28T17:52:05.403Z,8.76
2023-01-28T17:54:32.175Z,8.61
2023-01-28T17:56:58.811Z,8.53
2023-01-28T17:59:25.879Z,8.53
2023-01-28T18:01:54.510Z,8.51
2023-01-28T18:04:21.276Z,8.45
2023-01-28T18:06:49.196Z,8.72
2023-01-28T18:09:16.308Z,8.37
2023-01-28T18:11:51.485Z,8.33
2023-01-28T18:14:19.169Z,8.18
2023-01-28T18:16:45.907Z,8.13
2023-01-28T18:19:12.485Z,8.17
2023-01-28T18:21:56.932Z,8.43
2023-01-28T18:24:28.851Z,8.47
2023-01-28T18:27:00.433Z,8.16
2023-01-28T18:29:29.566Z,8.27
2023-01-28T18:31:57.855Z,8.13
2023-01-28T18:34:26.711Z,7.84
2023-01-28T18:36:53.602Z,8.33
2023-01-28T18:39:21.275Z,7.99
2023-01-28T18:41:48.090Z,7.68
2023-01-28T18:44:15.358Z,7.37
2023-01-28T18:46:42.000Z,7.20
2023-01-28T18:49:08.661Z,7.32
2023-01-28T18:51:35.269Z,7.37
2023-01-28T18:54:04.286Z,7.14
2023-01-28T18:56:32.171Z,7.15
2023-01-28T18:59:04.958Z,7.17
2023-01-28T19:01:33.762Z,7.42
2023-01-28T19:04:01.269Z,7.53
2023-01-28T19:06:29.980Z,6.95
2023-01-28T19:08:58.722Z,6.85
2023-01-28T19:11:27.833Z,6.92
2023-01-28T19:13:54.712Z,6.68
2023-01-28T19:16:21.958Z,7.04
2023-01-28T19:18:59.209Z,7.04
2023-01-28T19:21:28.165Z,7.16
2023-01-28T19:24:03.567Z,6.99
2023-01-28T19:26:31.841Z,7.25
2023-01-28T19:28:58.633Z,7.54
2023-01-28T19:31:26.370Z,7.22
2023-01-28T19:33:56.112Z,7.22
2023-01-28T19:36:25.888Z,7.49
2023-01-28T19:38:56.335Z,7.24
2023-01-28T19:41:23.110Z,7.08
2023-01-28T19:43:49.989Z,6.90
2023-01-28T19:46:17.763Z,6.60
2023-01-28T19:48:45.387Z,6.39
2023-01-28T19:51:13.257Z,6.25
2023-01-28T19:53:41.842Z,6.60
2023-01-28T19:56:15.878Z,6.60
2023-01-28T19:58:43.723Z,6.86
2023-01-28T20:01:17.288Z,6.73
2023-01-28T20:03:45.763Z,6.92
2023-01-28T20:06:15.882Z,7.01
2023-01-28T20:08:43.496Z,7.12
2023-01-28T20:11:15.378Z,7.13
2023-01-28T20:13:44.622Z,7.45
2023-01-28T20:16:19.074Z,7.24
2023-01-28T20:18:57.507Z,7.25
2023-01-28T20:21:24.997Z,7.25
2023-01-28T20:23:53.695Z,7.11
2023-01-28T20:26:23.621Z,7.32
2023-01-28T20:28:51.095Z,7.02
2023-01-28T20:31:19.641Z,6.91
2023-01-28T20:33:46.673Z,6.62
2023-01-28T20:36:14.506Z,6.96
2023-01-28T20:38:43.914Z,7.04
2023-01-28T20:41:16.744Z,7.12
2023-01-28T20:43:45.366Z,6.91
2023-01-28T20:46:14.980Z,7.30
2023-01-28T20:48:41.925Z,7.31
2023-01-28T20:51:20.539Z,6.90
2023-01-28T20:53:47.989Z,6.62
2023-01-28T20:56:19.191Z,6.91
2023-01-28T20:58:48.043Z,7.14
2023-01-28T21:01:19.445Z,7.21
2023-01-28T21:03:46.997Z,7.22
2023-01-28T21:06:13.934Z,7.19
2023-01-28T21:08:41.477Z,7.32
2023-01-28T21:11:08.664Z,7.18
2023-01-28T21:13:35.573Z,6.64
2023-01-28T21:16:02.230Z,6.74
2023-01-28T21:18:29.454Z,7.03
2023-01-28T21:21:01.580Z,6.89
2023-01-28T21:23:28.138Z,6.82
2023-01-28T21:25:54.644Z,6.71
2023-01-28T21:28:21.203Z,6.63
2023-01-28T21:30:47.795Z,6.48
2023-01-28T21:33:14.419Z,6.59
2023-01-28T21:35:43.409Z,6.44
2023-01-28T21:38:10.805Z,5.89
2023-01-28T21:40:37.604Z,5.86
2023-01-28T21:43:04.513Z,6.24
2023-01-28T21:45:31.134Z,6.62
2023-01-28T21:47:57.912Z,6.76
2023-01-28T21:50:24.694Z,6.81
2023-01-28T21:52:51.653Z,6.53
2023-01-28T21:55:18.578Z,6.49
2023-01-28T21:57:45.299Z,6.15
2023-01-28T22:00:12.991Z,5.74
2023-01-28T22:02:40.175Z,5.82
2023-01-28T22:05:07.360Z,5.67
2023-01-28T22:07:33.984Z,6.02
2023-01-28T22:10:00.644Z,6.16
2023-01-28T22:12:28.032Z,6.12
2023-01-28T22:14:54.892Z,6.29
2023-01-28T22:17:21.701Z,6.24
2023-01-28T22:19:48.324Z,6.54
2023-01-28T22:22:16.155Z,6.19
2023-01-28T22:24:42.842Z,6.13
2023-01-28T22:27:09.707Z,6.44
2023-01-28T22:29:36.250Z,6.48
2023-01-28T22:32:04.655Z,6.33
2023-01-28T22:34:31.542Z,6.33
2023-01-28T22:36:58.214Z,6.38
2023-01-28T22:39:24.824Z,6.54
2023-01-28T22:41:51.403Z,6.65
2023-01-28T22:44:19.781Z,6.42
2023-01-28T22:46:47.144Z,6.28
2023-01-28T22:49:14.870Z,6.08
2023-01-28T22:51:41.812Z,5.97
2023-01-28T22:54:10.777Z,6.11
2023-01-28T22:56:38.197Z,6.16
2023-01-28T22:59:04.867Z,6.01
2023-01-28T23:01:32.324Z,6.19
2023-01-28T23:03:58.989Z,6.29
2023-01-28T23:06:27.931Z,6.42
2023-01-28T23:08:56.167Z,6.59
2023-01-28T23:11:27.061Z,6.42
2023-01-28T23:14:15.289Z,6.61
2023-01-28T23:17:00.728Z,6.65
2023-01-28T23:19:46.201Z,6.66
2023-01-28T23:22:40.233Z,6.98
2023-01-28T23:25:07.239Z,7.02
2023-01-28T23:27:34.537Z,6.78
2023-01-28T23:30:01.201Z,6.89
2023-01-28T23:32:28.156Z,7.05
2023-01-28T23:34:54.806Z,6.84
2023-01-28T23:37:21.388Z,6.81
2023-01-28T23:39:47.951Z,6.81
2023-01-28T23:42:29.499Z,6.55
2023-01-28T23:44:56.073Z,6.84
2023-01-28T23:47:22.839Z,6.43
2023-01-28T23:49:49.479Z,6.41
2023-01-28T23:52:16.035Z,6.57
2023-01-28T23:54:42.673Z,6.69
2023-01-28T23:57:09.347Z,7.11
2023-01-28T23:59:36.556Z,7.35
